createdAt,value
2023-03-03T00:00:38.408Z,46.70
2023-03-03T00:03:09.612Z,52.50
2023-03-03T00:05:38.080Z,45.67
2023-03-03T00:08:06.821Z,50.00
2023-03-03T00:10:35.516Z,43.97
2023-03-03T00:13:03.934Z,49.67
2023-03-03T00:15:33.527Z,50.63
2023-03-03T00:18:03.449Z,50.87
2023-03-03T00:20:36.038Z,49.40
2023-03-03T00:23:18.017Z,48.97
2023-03-03T00:25:47.563Z,49.00
2023-03-03T00:28:22.523Z,48.73
2023-03-03T00:30:53.540Z,46.97
2023-03-03T00:33:29.745Z,48.43
2023-03-03T00:35:58.575Z,47.63
2023-03-03T00:38:27.635Z,46.07
2023-03-03T00:40:55.747Z,50.93
2023-03-03T00:43:25.710Z,51.33
2023-03-03T00:45:56.435Z,46.20
2023-03-03T00:48:27.986Z,51.37
2023-03-03T00:50:57.710Z,49.83
2023-03-03T00:53:27.144Z,53.23
2023-03-03T00:55:55.536Z,47.73
2023-03-03T00:58:25.419Z,51.77
2023-03-03T01:00:59.033Z,44.83
2023-03-03T01:03:28.304Z,55.10
2023-03-03T01:05:56.667Z,55.00
2023-03-03T01:08:25.164Z,50.17
2023-03-03T01:10:55.415Z,49.33
2023-03-03T01:13:25.735Z,49.00
2023-03-03T01:15:55.862Z,45.83
2023-03-03T01:18:24.252Z,50.37
2023-03-03T01:20:52.568Z,53.13
2023-03-03T01:23:21.042Z,46.47
2023-03-03T01:25:49.332Z,51.37
2023-03-03T01:28:17.771Z,49.00
2023-03-03T01:30:45.984Z,48.67
2023-03-03T01:33:15.521Z,60.30
2023-03-03T01:35:46.300Z,49.27
2023-03-03T01:38:14.526Z,53.80
2023-03-03T01:40:42.970Z,50.20
2023-03-03T01:43:16.003Z,49.83
2023-03-03T01:46:17.392Z,54.43
2023-03-03T01:48:47.500Z,53.70
2023-03-03T01:51:21.885Z,50.57
2023-03-03T01:53:52.961Z,52.57
2023-03-03T01:56:21.087Z,59.40
2023-03-03T01:58:53.027Z,63.43
2023-03-03T02:01:25.955Z,62.87
2023-03-03T02:03:56.117Z,60.40
2023-03-03T02:06:28.149Z,58.77
2023-03-03T02:09:01.821Z,62.97
2023-03-03T02:11:32.468Z,58.80
2023-03-03T02:14:00.689Z,65.70
2023-03-03T02:16:29.068Z,63.40
2023-03-03T02:18:58.846Z,59.00
2023-03-03T02:21:29.285Z,64.30
2023-03-03T02:24:07.254Z,63.70
2023-03-03T02:26:40.363Z,60.80
2023-03-03T02:29:10.059Z,70.67
2023-03-03T02:31:38.687Z,69.13
2023-03-03T02:34:06.906Z,66.80
2023-03-03T02:36:37.147Z,66.83
2023-03-03T02:39:09.204Z,68.03
2023-03-03T02:41:44.114Z,73.43
2023-03-03T02:44:14.446Z,72.77
2023-03-03T02:46:44.834Z,71.90
2023-03-03T02:49:16.611Z,70.70
2023-03-03T02:51:45.258Z,71.37
2023-03-03T02:54:15.533Z,77.00
2023-03-03T02:56:45.639Z,76.13
2023-03-03T02:59:14.164Z,81.17
2023-03-03T03:01:42.822Z,74.03
2023-03-03T03:04:12.918Z,74.47
2023-03-03T03:06:41.146Z,83.07
2023-03-03T03:09:10.406Z,84.17
2023-03-03T03:11:39.271Z,81.50
2023-03-03T03:14:12.478Z,89.33
2023-03-03T03:16:41.036Z,84.93
2023-03-03T03:19:10.199Z,93.27
2023-03-03T03:21:38.513Z,81.77
2023-03-03T03:24:10.132Z,85.03
2023-03-03T03:26:38.262Z,88.13
2023-03-03T03:29:07.969Z,83.43
2023-03-03T03:31:36.690Z,97.47
2023-03-03T03:34:04.969Z,95.07
2023-03-03T03:36:33.141Z,94.30
2023-03-03T03:39:03.049Z,90.77
2023-03-03T03:41:31.136Z,86.10
2023-03-03T03:43:59.294Z,94.23
2023-03-03T03:46:29.058Z,105.90
2023-03-03T03:48:57.165Z,83.73
2023-03-03T03:51:25.280Z,99.10
2023-03-03T03:53:53.458Z,89.87
2023-03-03T03:56:21.543Z,99.53
2023-03-03T03:58:49.648Z,107.17
2023-03-03T04:01:17.811Z,103.80
2023-03-03T04:03:47.294Z,100.03
2023-03-03T04:06:15.522Z,105.10
2023-03-03T04:08:43.849Z,102.43
2023-03-03T04:11:12.167Z,106.93
2023-03-03T04:13:40.465Z,99.40
2023-03-03T04:16:09.019Z,100.07
2023-03-03T04:18:37.210Z,100.03
2023-03-03T04:21:07.127Z,100.10
2023-03-03T04:23:35.511Z,103.27
2023-03-03T04:26:03.606Z,92.30
2023-03-03T04:28:31.756Z,100.50
2023-03-03T04:31:01.006Z,103.43
2023-03-03T04:33:29.146Z,88.70
2023-03-03T04:35:57.378Z,96.63
2023-03-03T04:38:27.608Z,95.20
2023-03-03T04:40:55.670Z,100.70
2023-03-03T04:43:23.754Z,94.17
2023-03-03T04:45:52.384Z,97.37
2023-03-03T04:48:20.561Z,94.70
2023-03-03T04:50:48.718Z,88.23
2023-03-03T04:53:16.957Z,95.93
2023-03-03T04:55:46.451Z,90.87
2023-03-03T04:58:16.010Z,102.73
2023-03-03T05:00:44.504Z,101.30
2023-03-03T05:03:13.847Z,95.00
2023-03-03T05:05:42.284Z,93.73
2023-03-03T05:08:10.794Z,90.40
2023-03-03T05:10:38.903Z,87.17
2023-03-03T05:13:09.239Z,83.50
2023-03-03T05:15:37.719Z,84.30
2023-03-03T05:18:06.065Z,94.43
2023-03-03T05:20:34.135Z,89.03
2023-03-03T05:23:02.968Z,75.93
2023-03-03T05:25:31.068Z,91.53
2023-03-03T05:27:59.272Z,107.67
2023-03-03T05:30:28.903Z,128.60
2023-03-03T05:32:59.400Z,107.53
2023-03-03T05:35:27.909Z,103.57
2023-03-03T05:37:58.087Z,104.73
2023-03-03T05:40:26.958Z,112.33
2023-03-03T05:42:55.366Z,115.83
2023-03-03T05:45:24.419Z,125.03
2023-03-03T05:47:54.337Z,128.53
2023-03-03T05:50:24.246Z,150.60
2023-03-03T05:52:53.130Z,152.10
2023-03-03T05:55:21.376Z,149.37
2023-03-03T05:57:49.577Z,146.93
2023-03-03T06:00:18.881Z,158.80
2023-03-03T06:02:47.149Z,147.67
2023-03-03T06:05:17.129Z,121.27
2023-03-03T06:07:45.241Z,112.40
2023-03-03T06:10:13.518Z,112.63
2023-03-03T06:12:42.261Z,95.27
2023-03-03T06:15:11.280Z,92.00
2023-03-03T06:17:39.877Z,98.53
2023-03-03T06:20:09.156Z,89.90
2023-03-03T06:22:57.567Z,92.90
2023-03-03T06:25:25.998Z,86.27
2023-03-03T06:27:54.190Z,78.67
2023-03-03T06:30:22.338Z,84.50
2023-03-03T06:32:50.589Z,85.60
2023-03-03T06:35:19.241Z,84.00
2023-03-03T06:37:50.859Z,81.27
2023-03-03T06:40:20.701Z,77.70
2023-03-03T06:42:48.834Z,86.33
2023-03-03T06:45:17.228Z,80.17
2023-03-03T06:47:45.426Z,90.70
2023-03-03T06:50:13.865Z,85.87
2023-03-03T06:52:42.016Z,90.70
2023-03-03T06:55:15.012Z,80.00
2023-03-03T06:57:44.536Z,91.50
2023-03-03T07:00:24.624Z,83.33
2023-03-03T07:03:00.441Z,99.30
2023-03-03T07:05:30.164Z,92.50
2023-03-03T07:07:58.416Z,83.47
2023-03-03T07:10:30.382Z,87.77
2023-03-03T07:13:18.016Z,86.17
2023-03-03T07:15:46.869Z,92.57
2023-03-03T07:18:30.078Z,95.47
2023-03-03T07:20:59.011Z,106.23
2023-03-03T07:23:29.227Z,102.33
2023-03-03T07:25:57.336Z,99.23
2023-03-03T07:28:29.042Z,101.27
2023-03-03T07:30:59.084Z,91.63
2023-03-03T07:33:29.009Z,98.40
2023-03-03T07:35:59.212Z,88.90
2023-03-03T07:38:33.000Z,79.97
2023-03-03T07:41:03.002Z,89.83
2023-03-03T07:43:38.781Z,81.20
2023-03-03T07:46:29.944Z,78.03
2023-03-03T07:48:59.531Z,83.13
2023-03-03T07:51:29.870Z,80.93
2023-03-03T07:54:15.893Z,92.50
2023-03-03T07:56:44.001Z,73.97
2023-03-03T07:59:22.180Z,78.80
2023-03-03T08:01:55.311Z,73.37
2023-03-03T08:04:28.802Z,72.83
2023-03-03T08:06:58.168Z,61.53
2023-03-03T08:09:38.892Z,70.77
2023-03-03T08:12:48.820Z,64.57
2023-03-03T08:15:22.859Z,67.33
2023-03-03T08:17:54.462Z,65.07
2023-03-03T08:20:50.105Z,64.87
2023-03-03T08:23:20.192Z,64.17
2023-03-03T08:25:49.887Z,66.17
2023-03-03T08:28:37.021Z,60.77
2023-03-03T08:31:18.399Z,63.10
2023-03-03T08:33:53.437Z,61.10
2023-03-03T08:36:21.637Z,55.63
2023-03-03T08:38:49.890Z,57.20
2023-03-03T08:41:21.247Z,60.33
2023-03-03T08:43:49.449Z,50.73
2023-03-03T08:46:19.084Z,51.07
2023-03-03T08:48:47.345Z,46.13
2023-03-03T08:51:15.535Z,52.27
2023-03-03T08:53:43.663Z,46.17
2023-03-03T08:56:12.034Z,43.37
2023-03-03T08:58:49.847Z,40.40
2023-03-03T09:01:29.460Z,37.70
2023-03-03T09:03:57.897Z,36.07
2023-03-03T09:06:28.303Z,40.53
2023-03-03T09:08:57.007Z,42.47
2023-03-03T09:11:28.668Z,40.53
2023-03-03T09:14:03.395Z,38.73
2023-03-03T09:16:42.978Z,43.07
2023-03-03T09:19:25.614Z,46.57
2023-03-03T09:21:54.908Z,51.00
2023-03-03T09:24:28.127Z,65.13
2023-03-03T09:26:58.632Z,61.13
2023-03-03T09:29:29.394Z,65.23
2023-03-03T09:32:01.107Z,62.30
2023-03-03T09:34:41.136Z,52.93
2023-03-03T09:37:23.171Z,54.23
2023-03-03T09:39:53.038Z,56.00
2023-03-03T09:42:47.310Z,50.27
2023-03-03T09:45:50.613Z,51.50
2023-03-03T09:48:43.576Z,45.93
2023-03-03T09:51:31.738Z,40.93
2023-03-03T09:54:12.478Z,36.73
2023-03-03T09:56:45.891Z,41.30
2023-03-03T09:59:28.207Z,37.53
2023-03-03T10:02:12.738Z,35.47
2023-03-03T10:05:14.402Z,37.40
2023-03-03T10:07:49.638Z,35.20
2023-03-03T10:10:28.446Z,35.10
2023-03-03T10:13:13.517Z,34.73
2023-03-03T10:15:54.795Z,34.90
2023-03-03T10:18:33.740Z,38.30
2023-03-03T10:21:11.816Z,37.97
2023-03-03T10:23:58.858Z,39.93
2023-03-03T10:27:11.951Z,34.97
2023-03-03T10:29:52.943Z,34.50
2023-03-03T10:32:45.711Z,30.23
2023-03-03T10:36:04.713Z,31.63
2023-03-03T10:38:45.565Z,27.43
2023-03-03T10:41:30.130Z,30.93
2023-03-03T10:44:29.394Z,26.83
2023-03-03T10:47:08.576Z,26.27
2023-03-03T10:50:02.498Z,24.50
2023-03-03T10:52:38.544Z,29.93
2023-03-03T10:55:46.936Z,25.40
2023-03-03T10:58:44.872Z,28.27
2023-03-03T11:01:24.504Z,23.93
2023-03-03T11:04:20.891Z,23.37
2023-03-03T11:06:55.498Z,27.00
2023-03-03T11:09:47.309Z,25.30
2023-03-03T11:12:29.332Z,22.13
2023-03-03T11:15:10.017Z,23.90
2023-03-03T11:17:52.126Z,24.30
2023-03-03T11:20:32.651Z,27.43
2023-03-03T11:23:13.249Z,25.30
2023-03-03T11:25:48.341Z,30.00
2023-03-03T11:28:31.699Z,28.30
2023-03-03T11:31:14.776Z,25.93
2023-03-03T11:33:54.544Z,28.07
2023-03-03T11:36:29.099Z,28.43
2023-03-03T11:39:00.046Z,30.57
2023-03-03T11:41:33.930Z,26.93
2023-03-03T11:44:11.399Z,29.13
2023-03-03T11:46:46.211Z,32.13
2023-03-03T11:49:23.344Z,25.60
2023-03-03T11:51:59.188Z,28.50
2023-03-03T11:54:31.988Z,23.10
2023-03-03T11:57:17.579Z,23.00
2023-03-03T12:00:04.793Z,21.23
2023-03-03T12:02:48.474Z,26.10
2023-03-03T12:05:28.580Z,23.40
2023-03-03T12:08:09.155Z,20.87
2023-03-03T12:10:46.174Z,24.47
2023-03-03T12:13:22.701Z,20.40
2023-03-03T12:15:56.933Z,20.60
2023-03-03T12:18:51.464Z,21.90
2023-03-03T12:21:30.968Z,21.00
2023-03-03T12:24:12.451Z,22.93
2023-03-03T12:26:49.486Z,22.23
2023-03-03T12:29:31.788Z,22.93
2023-03-03T12:32:16.592Z,21.83
2023-03-03T12:34:52.721Z,23.60
2023-03-03T12:37:49.160Z,24.00
2023-03-03T12:40:21.642Z,25.20
2023-03-03T12:43:11.316Z,22.67
2023-03-03T12:45:53.677Z,20.60
2023-03-03T12:48:29.283Z,25.47
2023-03-03T12:51:06.925Z,26.73
2023-03-03T12:54:04.119Z,24.20
2023-03-03T12:56:36.776Z,23.83
2023-03-03T12:59:11.748Z,30.53
2023-03-03T13:01:50.423Z,28.43
2023-03-03T13:04:33.015Z,28.47
2023-03-03T13:07:08.759Z,22.73
2023-03-03T13:09:51.475Z,24.10
2023-03-03T13:12:32.454Z,23.90
2023-03-03T13:15:06.169Z,24.10
2023-03-03T13:17:40.161Z,21.37
2023-03-03T13:20:22.227Z,20.47
2023-03-03T13:22:56.820Z,18.43
2023-03-03T13:25:37.481Z,19.17
2023-03-03T13:28:14.873Z,20.70
2023-03-03T13:30:49.183Z,20.37
2023-03-03T13:33:24.132Z,26.60
2023-03-03T13:35:56.457Z,19.53
2023-03-03T13:38:29.508Z,19.87
2023-03-03T13:41:05.490Z,22.97
2023-03-03T13:43:41.608Z,17.27
2023-03-03T13:46:17.193Z,19.00
2023-03-03T13:49:10.414Z,20.90
2023-03-03T13:51:46.282Z,18.90
2023-03-03T13:54:26.088Z,25.07
2023-03-03T13:57:13.512Z,22.03
2023-03-03T13:59:51.895Z,22.40
2023-03-03T14:02:42.470Z,21.47
2023-03-03T14:05:17.796Z,19.90
2023-03-03T14:07:57.439Z,25.27
2023-03-03T14:10:31.667Z,19.90
2023-03-03T14:13:05.789Z,19.77
2023-03-03T14:15:37.829Z,17.03
2023-03-03T14:18:25.104Z,20.73
2023-03-03T14:20:54.927Z,17.67
2023-03-03T14:23:30.115Z,22.07
2023-03-03T14:26:00.842Z,16.43
2023-03-03T14:28:31.359Z,16.30
2023-03-03T14:31:01.708Z,20.00
2023-03-03T14:33:32.672Z,15.13
2023-03-03T14:36:07.044Z,14.50
2023-03-03T14:38:42.856Z,13.43
2023-03-03T14:41:19.411Z,15.70
2023-03-03T14:43:58.978Z,13.50
2023-03-03T14:46:36.954Z,19.33
2023-03-03T14:49:08.097Z,13.30
2023-03-03T14:51:44.181Z,19.93
2023-03-03T14:54:23.247Z,15.00
2023-03-03T14:57:04.659Z,17.80
2023-03-03T14:59:33.676Z,16.60
2023-03-03T15:02:36.728Z,16.57
2023-03-03T15:05:23.807Z,19.60
2023-03-03T15:07:56.690Z,17.83
2023-03-03T15:10:35.095Z,16.93
2023-03-03T15:13:34.704Z,21.67
2023-03-03T15:16:12.541Z,18.90
2023-03-03T15:19:22.176Z,23.07
2023-03-03T15:22:07.090Z,21.67
2023-03-03T15:24:42.429Z,19.97
2023-03-03T15:27:19.545Z,18.37
2023-03-03T15:30:02.071Z,18.73
2023-03-03T15:32:37.059Z,16.17
2023-03-03T15:35:16.809Z,17.27
2023-03-03T15:37:51.977Z,18.93
2023-03-03T15:40:27.988Z,20.17
2023-03-03T15:43:10.618Z,17.80
2023-03-03T15:45:46.108Z,17.97
2023-03-03T15:48:34.525Z,18.40
2023-03-03T15:51:12.746Z,18.43
2023-03-03T15:53:58.756Z,18.57
2023-03-03T15:56:37.498Z,17.87
2023-03-03T15:59:53.028Z,16.13
2023-03-03T16:02:23.657Z,21.10
2023-03-03T16:04:58.810Z,17.07
2023-03-03T16:07:37.286Z,13.43
2023-03-03T16:10:16.387Z,16.63
2023-03-03T16:12:56.330Z,13.23
2023-03-03T16:15:45.938Z,14.93
2023-03-03T16:18:25.082Z,16.13
2023-03-03T16:21:01.822Z,16.17
2023-03-03T16:23:40.952Z,13.47
2023-03-03T16:26:18.877Z,13.93
2023-03-03T16:29:01.088Z,16.40
2023-03-03T16:31:37.811Z,10.70
2023-03-03T16:34:15.915Z,11.60
2023-03-03T16:36:56.169Z,12.47
2023-03-03T16:39:33.642Z,16.57
2023-03-03T16:42:11.317Z,17.47
2023-03-03T16:44:47.771Z,15.40
2023-03-03T16:47:29.511Z,14.47
2023-03-03T16:50:11.439Z,12.70
2023-03-03T16:52:44.690Z,13.77
2023-03-03T16:55:18.610Z,13.37
2023-03-03T16:57:58.255Z,14.10
2023-03-03T17:00:30.604Z,15.70
2023-03-03T17:03:36.169Z,13.50
2023-03-03T17:06:12.443Z,13.00
2023-03-03T17:09:04.458Z,15.57
2023-03-03T17:11:45.407Z,16.90
2023-03-03T17:14:42.503Z,11.93
2023-03-03T17:17:17.730Z,12.90
2023-03-03T17:19:58.571Z,11.70
2023-03-03T17:22:35.016Z,12.60
2023-03-03T17:25:13.702Z,14.17
2023-03-03T17:28:00.602Z,13.50
2023-03-03T17:30:36.626Z,15.10
2023-03-03T17:33:17.854Z,14.37
2023-03-03T17:36:10.852Z,13.53
2023-03-03T17:38:48.325Z,16.30
2023-03-03T17:41:23.427Z,13.87
2023-03-03T17:44:00.352Z,14.03
2023-03-03T17:46:35.288Z,16.37
2023-03-03T17:49:29.391Z,10.63
2023-03-03T17:52:17.429Z,9.50
2023-03-03T17:55:10.201Z,11.20
2023-03-03T17:57:53.259Z,10.40
2023-03-03T18:00:33.083Z,8.57
2023-03-03T18:03:38.783Z,10.17
2023-03-03T18:06:27.474Z,13.37
2023-03-03T18:09:14.079Z,13.80
2023-03-03T18:12:05.271Z,12.93
2023-03-03T18:14:59.686Z,9.90
2023-03-03T18:17:45.631Z,11.10
2023-03-03T18:20:36.050Z,12.67
2023-03-03T18:23:41.727Z,8.07
2023-03-03T18:26:41.496Z,16.33
2023-03-03T18:29:22.495Z,15.30
2023-03-03T18:32:03.927Z,12.97
2023-03-03T18:34:36.792Z,8.17
2023-03-03T18:37:10.503Z,8.37
2023-03-03T18:39:43.286Z,7.73
2023-03-03T18:42:37.738Z,9.43
2023-03-03T18:45:43.768Z,9.17
2023-03-03T18:48:13.781Z,9.60
2023-03-03T18:50:43.519Z,12.67
2023-03-03T18:53:30.541Z,12.37
2023-03-03T18:56:00.627Z,12.60
2023-03-03T18:58:42.096Z,15.67
2023-03-03T19:01:41.699Z,10.50
2023-03-03T19:04:24.852Z,19.70
2023-03-03T19:07:09.561Z,14.30
2023-03-03T19:09:57.353Z,10.30
2023-03-03T19:12:48.608Z,12.87
2023-03-03T19:15:50.105Z,11.43
2023-03-03T19:18:25.734Z,10.57
2023-03-03T19:20:59.664Z,11.80
2023-03-03T19:23:47.429Z,13.50
2023-03-03T19:26:54.789Z,14.77
2023-03-03T19:29:53.629Z,13.13
2023-03-03T19:32:36.369Z,16.43
2023-03-03T19:35:21.468Z,13.47
2023-03-03T19:37:58.248Z,10.93
2023-03-03T19:40:34.253Z,10.07
2023-03-03T19:43:09.919Z,12.30
2023-03-03T19:45:57.755Z,13.27
2023-03-03T19:48:36.257Z,11.60
2023-03-03T19:51:14.590Z,11.73
2023-03-03T19:53:51.683Z,11.77
2023-03-03T19:56:25.753Z,9.73
2023-03-03T19:59:04.783Z,9.73
2023-03-03T20:01:49.251Z,12.33
2023-03-03T20:04:38.387Z,11.60
2023-03-03T20:07:18.892Z,10.20
2023-03-03T20:09:55.192Z,9.03
2023-03-03T20:12:34.319Z,8.03
2023-03-03T20:15:12.417Z,9.03
2023-03-03T20:18:00.525Z,10.13
2023-03-03T20:20:52.564Z,9.40
2023-03-03T20:23:27.901Z,10.63
2023-03-03T20:26:01.634Z,8.20
2023-03-03T20:29:20.368Z,11.07
2023-03-03T20:31:56.788Z,11.83
2023-03-03T20:34:34.367Z,10.53
2023-03-03T20:37:09.655Z,11.57
2023-03-03T20:39:52.581Z,12.07
2023-03-03T20:42:34.306Z,12.97
2023-03-03T20:45:19.853Z,11.20
2023-03-03T20:47:59.643Z,14.23
2023-03-03T20:50:36.576Z,14.80
2023-03-03T20:53:21.043Z,14.40
2023-03-03T20:55:58.668Z,17.90
2023-03-03T20:58:35.182Z,19.30
2023-03-03T21:01:07.911Z,22.07
2023-03-03T21:03:39.232Z,18.30
2023-03-03T21:06:12.289Z,20.17
2023-03-03T21:08:48.791Z,17.53
2023-03-03T21:11:19.396Z,19.13
2023-03-03T21:13:48.983Z,20.57
2023-03-03T21:16:32.319Z,26.17
2023-03-03T21:19:03.157Z,25.33
2023-03-03T21:21:33.868Z,18.93
2023-03-03T21:24:03.568Z,20.03
2023-03-03T21:26:49.261Z,22.60
2023-03-03T21:29:36.425Z,19.87
2023-03-03T21:32:07.232Z,23.23
2023-03-03T21:34:37.149Z,21.33
2023-03-03T21:37:07.260Z,20.80
2023-03-03T21:39:38.402Z,20.57
2023-03-03T21:42:08.015Z,25.93
2023-03-03T21:44:41.814Z,22.03
2023-03-03T21:47:11.680Z,24.43
2023-03-03T21:49:42.754Z,24.27
2023-03-03T21:52:11.717Z,23.80
2023-03-03T21:54:41.599Z,20.67
2023-03-03T21:57:12.291Z,15.53
2023-03-03T21:59:40.517Z,21.07
2023-03-03T22:02:09.440Z,18.00
2023-03-03T22:04:38.946Z,22.87
2023-03-03T22:07:07.635Z,22.37
2023-03-03T22:09:36.394Z,20.30
2023-03-03T22:12:07.104Z,18.53
2023-03-03T22:14:35.231Z,18.03
2023-03-03T22:17:03.527Z,23.77
2023-03-03T22:19:34.378Z,15.07
2023-03-03T22:22:02.621Z,17.77
2023-03-03T22:24:30.934Z,10.30
2023-03-03T22:26:59.380Z,12.73
2023-03-03T22:29:29.255Z,16.93
2023-03-03T22:31:57.517Z,13.90
2023-03-03T22:34:26.096Z,12.80
2023-03-03T22:36:54.220Z,15.33
2023-03-03T22:39:22.382Z,16.50
2023-03-03T22:41:50.887Z,13.77
2023-03-03T22:44:19.003Z,19.07
2023-03-03T22:46:48.542Z,10.73
2023-03-03T22:49:17.086Z,11.47
2023-03-03T22:51:45.296Z,18.20
2023-03-03T22:54:13.572Z,17.87
2023-03-03T22:56:41.928Z,16.63
2023-03-03T22:59:10.196Z,20.67
2023-03-03T23:01:38.294Z,20.00
2023-03-03T23:04:08.406Z,26.60
2023-03-03T23:06:36.604Z,26.20
2023-03-03T23:09:04.948Z,23.87
2023-03-03T23:11:33.396Z,21.97
2023-03-03T23:14:01.590Z,31.00
2023-03-03T23:16:29.832Z,22.17
2023-03-03T23:18:58.276Z,26.23
2023-03-03T23:21:27.882Z,18.37
2023-03-03T23:23:55.960Z,19.03
2023-03-03T23:26:24.546Z,18.73
2023-03-03T23:28:52.635Z,21.13
2023-03-03T23:31:21.080Z,23.10
2023-03-03T23:33:49.460Z,20.50
2023-03-03T23:36:17.573Z,19.70
2023-03-03T23:38:47.062Z,20.87
2023-03-03T23:41:15.591Z,23.57
2023-03-03T23:43:43.718Z,23.77
2023-03-03T23:46:11.866Z,23.63
2023-03-03T23:48:41.771Z,20.13
2023-03-03T23:51:09.859Z,17.93
2023-03-03T23:53:38.081Z,20.33
2023-03-03T23:56:09.012Z,24.90
2023-03-03T23:58:37.101Z,20.43
